sensor_id;sensor_type;location;lat;lon;timestamp;temperature;humidity
28863;DHT22;15994;51.796;13.006;2022-08-19T00:01:35;20.00;99.90
28863;DHT22;15994;51.796;13.006;2022-08-19T00:04:04;19.80;99.90
28863;DHT22;15994;51.796;13.006;2022-08-19T00:06:31;19.70;99.90
28863;DHT22;15994;51.796;13.006;2022-08-19T00:08:58;19.70;99.90
28863;DHT22;15994;51.796;13.006;2022-08-19T00:11:26;19.70;99.90
28863;DHT22;15994;51.796;13.006;2022-08-19T00:13:54;19.60;99.90
28863;DHT22;15994;51.796;13.006;2022-08-19T00:16:22;19.70;99.90
28863;DHT22;15994;51.796;13.006;2022-08-19T00:18:48;19.60;99.90
28863;DHT22;15994;51.796;13.006;2022-08-19T00:21:15;19.60;99.90
28863;DHT22;15994;51.796;13.006;2022-08-19T00:23:42;19.70;99.90
28863;DHT22;15994;51.796;13.006;2022-08-19T00:26:10;19.60;99.90
28863;DHT22;15994;51.796;13.006;2022-08-19T00:28:37;19.50;99.90
28863;DHT22;15994;51.796;13.006;2022-08-19T00:31:05;19.50;99.90
28863;DHT22;15994;51.796;13.006;2022-08-19T00:33:32;19.50;99.90
28863;DHT22;15994;51.796;13.006;2022-08-19T00:36:00;19.50;99.90
28863;DHT22;15994;51.796;13.006;2022-08-19T00:38:27;19.50;99.90
28863;DHT22;15994;51.796;13.006;2022-08-19T00:40:54;19.40;99.90
28863;DHT22;15994;51.796;13.006;2022-08-19T00:43:23;19.50;99.90
28863;DHT22;15994;51.796;13.006;2022-08-19T00:45:50;19.50;99.90
28863;DHT22;15994;51.796;13.006;2022-08-19T00:48:18;19.50;99.90
28863;DHT22;15994;51.796;13.006;2022-08-19T00:50:46;19.50;99.90
28863;DHT22;15994;51.796;13.006;2022-08-19T00:53:16;19.50;99.90
28863;DHT22;15994;51.796;13.006;2022-08-19T00:55:48;19.50;99.90
28863;DHT22;15994;51.796;13.006;2022-08-19T00:58:19;19.60;99.90
28863;DHT22;15994;51.796;13.006;2022-08-19T01:00:46;19.60;99.90
28863;DHT22;15994;51.796;13.006;2022-08-19T01:03:19;19.60;99.90
28863;DHT22;15994;51.796;13.006;2022-08-19T01:05:47;19.60;99.90
28863;DHT22;15994;51.796;13.006;2022-08-19T01:08:16;19.60;99.90
28863;DHT22;15994;51.796;13.006;2022-08-19T01:10:46;19.70;99.90
28863;DHT22;15994;51.796;13.006;2022-08-19T01:13:16;19.80;99.90
28863;DHT22;15994;51.796;13.006;2022-08-19T01:15:48;19.60;99.90
28863;DHT22;15994;51.796;13.006;2022-08-19T01:18:16;19.50;99.90
28863;DHT22;15994;51.796;13.006;2022-08-19T01:20:43;19.60;99.90
28863;DHT22;15994;51.796;13.006;2022-08-19T01:23:11;19.50;99.90
28863;DHT22;15994;51.796;13.006;2022-08-19T01:25:50;19.20;99.90
28863;DHT22;15994;51.796;13.006;2022-08-19T01:28:23;19.20;99.90
28863;DHT22;15994;51.796;13.006;2022-08-19T01:30:51;19.00;99.90
28863;DHT22;15994;51.796;13.006;2022-08-19T01:33:18;18.90;99.90
28863;DHT22;15994;51.796;13.006;2022-08-19T01:35:45;18.90;99.90
28863;DHT22;15994;51.796;13.006;2022-08-19T01:38:22;18.90;99.90
28863;DHT22;15994;51.796;13.006;2022-08-19T01:40:49;18.80;99.90
28863;DHT22;15994;51.796;13.006;2022-08-19T01:43:15;18.90;99.90
28863;DHT22;15994;51.796;13.006;2022-08-19T01:45:45;18.90;99.90
28863;DHT22;15994;51.796;13.006;2022-08-19T01:48:12;19.00;99.90
28863;DHT22;15994;51.796;13.006;2022-08-19T01:50:39;19.10;99.90
28863;DHT22;15994;51.796;13.006;2022-08-19T01:53:10;19.10;99.90
28863;DHT22;15994;51.796;13.006;2022-08-19T01:55:40;19.10;99.90
28863;DHT22;15994;51.796;13.006;2022-08-19T01:58:18;19.10;99.90
28863;DHT22;15994;51.796;13.006;2022-08-19T02:00:47;19.20;99.90
28863;DHT22;15994;51.796;13.006;2022-08-19T02:03:14;19.20;99.90
28863;DHT22;15994;51.796;13.006;2022-08-19T02:05:43;19.20;99.90
28863;DHT22;15994;51.796;13.006;2022-08-19T02:08:11;19.20;99.90
28863;DHT22;15994;51.796;13.006;2022-08-19T02:10:40;19.20;99.90
28863;DHT22;15994;51.796;13.006;2022-08-19T02:13:07;19.20;99.90
28863;DHT22;15994;51.796;13.006;2022-08-19T02:15:34;19.30;99.90
28863;DHT22;15994;51.796;13.006;2022-08-19T02:18:00;19.30;99.90
28863;DHT22;15994;51.796;13.006;2022-08-19T02:20:27;19.30;99.90
28863;DHT22;15994;51.796;13.006;2022-08-19T02:22:53;19.30;99.90
28863;DHT22;15994;51.796;13.006;2022-08-19T02:25:20;19.30;99.90
28863;DHT22;15994;51.796;13.006;2022-08-19T02:27:47;19.30;99.90
28863;DHT22;15994;51.796;13.006;2022-08-19T02:30:16;19.40;99.90
28863;DHT22;15994;51.796;13.006;2022-08-19T02:32:43;19.30;99.90
28863;DHT22;15994;51.796;13.006;2022-08-19T02:35:10;19.30;99.90
28863;DHT22;15994;51.796;13.006;2022-08-19T02:37:36;19.30;99.90
28863;DHT22;15994;51.796;13.006;2022-08-19T02:40:20;19.20;99.90
28863;DHT22;15994;51.796;13.006;2022-08-19T02:42:47;19.20;99.90
28863;DHT22;15994;51.796;13.006;2022-08-19T02:45:14;19.20;99.90
28863;DHT22;15994;51.796;13.006;2022-08-19T02:47:41;19.20;99.90
28863;DHT22;15994;51.796;13.006;2022-08-19T02:50:08;19.30;99.90
28863;DHT22;15994;51.796;13.006;2022-08-19T02:52:35;19.20;99.90
28863;DHT22;15994;51.796;13.006;2022-08-19T02:55:02;19.20;99.90
28863;DHT22;15994;51.796;13.006;2022-08-19T02:57:30;19.20;99.90
28863;DHT22;15994;51.796;13.006;2022-08-19T02:59:58;19.20;99.90
28863;DHT22;15994;51.796;13.006;2022-08-19T03:02:24;19.20;99.90
28863;DHT22;15994;51.796;13.006;2022-08-19T03:04:51;19.10;99.90
28863;DHT22;15994;51.796;13.006;2022-08-19T03:07:18;19.10;99.90
28863;DHT22;15994;51.796;13.006;2022-08-19T03:09:44;19.10;99.90
28863;DHT22;15994;51.796;13.006;2022-08-19T03:12:11;19.10;99.90
28863;DHT22;15994;51.796;13.006;2022-08-19T03:14:37;19.10;99.90
28863;DHT22;15994;51.796;13.006;2022-08-19T03:17:04;19.00;99.90
28863;DHT22;15994;51.796;13.006;2022-08-19T03:19:31;19.00;99.90
28863;DHT22;15994;51.796;13.006;2022-08-19T03:21:58;19.10;99.90
28863;DHT22;15994;51.796;13.006;2022-08-19T03:24:24;19.10;99.90
28863;DHT22;15994;51.796;13.006;2022-08-19T03:26:53;19.10;99.90
28863;DHT22;15994;51.796;13.006;2022-08-19T03:29:23;19.00;99.90
28863;DHT22;15994;51.796;13.006;2022-08-19T03:31:50;19.10;99.90
28863;DHT22;15994;51.796;13.006;2022-08-19T03:34:26;19.00;99.90
28863;DHT22;15994;51.796;13.006;2022-08-19T03:36:55;19.10;99.90
28863;DHT22;15994;51.796;13.006;2022-08-19T03:39:24;19.00;99.90
28863;DHT22;15994;51.796;13.006;2022-08-19T03:41:52;19.10;99.90
28863;DHT22;15994;51.796;13.006;2022-08-19T03:44:22;19.00;99.90
28863;DHT22;15994;51.796;13.006;2022-08-19T03:46:52;19.10;99.90
28863;DHT22;15994;51.796;13.006;2022-08-19T03:49:21;19.10;99.90
28863;DHT22;15994;51.796;13.006;2022-08-19T03:51:49;19.00;99.90
28863;DHT22;15994;51.796;13.006;2022-08-19T03:54:21;19.10;99.90
28863;DHT22;15994;51.796;13.006;2022-08-19T03:56:50;19.00;99.90
28863;DHT22;15994;51.796;13.006;2022-08-19T03:59:30;19.10;99.90
28863;DHT22;15994;51.796;13.006;2022-08-19T04:01:59;19.10;99.90
28863;DHT22;15994;51.796;13.006;2022-08-19T04:04:26;19.20;99.90
28863;DHT22;15994;51.796;13.006;2022-08-19T04:06:52;19.10;99.90
28863;DHT22;15994;51.796;13.006;2022-08-19T04:09:20;19.10;99.90
28863;DHT22;15994;51.796;13.006;2022-08-19T04:11:49;19.10;99.90
28863;DHT22;15994;51.796;13.006;2022-08-19T04:14:20;19.20;99.90
28863;DHT22;15994;51.796;13.006;2022-08-19T04:16:48;19.20;99.90
28863;DHT22;15994;51.796;13.006;2022-08-19T04:19:16;19.20;99.90
28863;DHT22;15994;51.796;13.006;2022-08-19T04:21:45;19.40;99.90
28863;DHT22;15994;51.796;13.006;2022-08-19T04:24:13;19.40;99.90
28863;DHT22;15994;51.796;13.006;2022-08-19T04:26:40;19.40;99.90
28863;DHT22;15994;51.796;13.006;2022-08-19T04:29:13;19.40;99.90
28863;DHT22;15994;51.796;13.006;2022-08-19T04:31:42;19.50;99.90
28863;DHT22;15994;51.796;13.006;2022-08-19T04:34:12;19.50;99.90
28863;DHT22;15994;51.796;13.006;2022-08-19T04:36:40;19.50;99.90
28863;DHT22;15994;51.796;13.006;2022-08-19T04:39:14;19.60;99.90
28863;DHT22;15994;51.796;13.006;2022-08-19T04:41:41;19.60;99.90
28863;DHT22;15994;51.796;13.006;2022-08-19T04:44:25;19.60;99.90
28863;DHT22;15994;51.796;13.006;2022-08-19T04:46:56;19.70;99.90
28863;DHT22;15994;51.796;13.006;2022-08-19T04:49:23;19.70;99.90
28863;DHT22;15994;51.796;13.006;2022-08-19T04:51:52;19.70;99.90
28863;DHT22;15994;51.796;13.006;2022-08-19T04:54:22;19.70;99.90
28863;DHT22;15994;51.796;13.006;2022-08-19T04:56:51;19.60;99.90
28863;DHT22;15994;51.796;13.006;2022-08-19T04:59:19;19.60;99.90
28863;DHT22;15994;51.796;13.006;2022-08-19T05:01:46;19.60;99.90
28863;DHT22;15994;51.796;13.006;2022-08-19T05:04:14;19.60;99.90
28863;DHT22;15994;51.796;13.006;2022-08-19T05:06:42;19.50;99.90
28863;DHT22;15994;51.796;13.006;2022-08-19T05:09:09;19.60;99.90
28863;DHT22;15994;51.796;13.006;2022-08-19T05:11:36;19.50;99.90
28863;DHT22;15994;51.796;13.006;2022-08-19T05:14:04;19.50;99.90
28863;DHT22;15994;51.796;13.006;2022-08-19T05:16:30;19.60;99.90
28863;DHT22;15994;51.796;13.006;2022-08-19T05:18:57;19.60;99.90
28863;DHT22;15994;51.796;13.006;2022-08-19T05:21:42;19.60;99.90
28863;DHT22;15994;51.796;13.006;2022-08-19T05:24:26;19.70;99.90
28863;DHT22;15994;51.796;13.006;2022-08-19T05:26:54;19.70;99.90
28863;DHT22;15994;51.796;13.006;2022-08-19T05:29:25;19.80;99.90
28863;DHT22;15994;51.796;13.006;2022-08-19T05:31:54;19.80;99.90
28863;DHT22;15994;51.796;13.006;2022-08-19T05:34:22;19.80;99.90
28863;DHT22;15994;51.796;13.006;2022-08-19T05:36:50;19.80;99.90
28863;DHT22;15994;51.796;13.006;2022-08-19T05:39:23;19.90;99.90
28863;DHT22;15994;51.796;13.006;2022-08-19T05:41:53;20.00;99.90
28863;DHT22;15994;51.796;13.006;2022-08-19T05:44:23;19.90;99.90
28863;DHT22;15994;51.796;13.006;2022-08-19T05:46:50;19.90;99.90
28863;DHT22;15994;51.796;13.006;2022-08-19T05:49:19;19.80;99.90
28863;DHT22;15994;51.796;13.006;2022-08-19T05:51:46;19.90;99.90
28863;DHT22;15994;51.796;13.006;2022-08-19T05:54:13;20.00;99.90
28863;DHT22;15994;51.796;13.006;2022-08-19T05:56:40;19.90;99.90
28863;DHT22;15994;51.796;13.006;2022-08-19T05:59:08;19.90;99.90
28863;DHT22;15994;51.796;13.006;2022-08-19T06:01:38;20.00;99.90
28863;DHT22;15994;51.796;13.006;2022-08-19T06:04:05;20.00;99.90
28863;DHT22;15994;51.796;13.006;2022-08-19T06:06:34;19.90;99.90
28863;DHT22;15994;51.796;13.006;2022-08-19T06:09:04;19.90;99.90
28863;DHT22;15994;51.796;13.006;2022-08-19T06:11:37;19.90;99.90
28863;DHT22;15994;51.796;13.006;2022-08-19T06:14:07;19.90;99.90
28863;DHT22;15994;51.796;13.006;2022-08-19T06:16:36;20.00;99.90
28863;DHT22;15994;51.796;13.006;2022-08-19T06:19:06;19.90;99.90
28863;DHT22;15994;51.796;13.006;2022-08-19T06:21:35;20.00;99.90
28863;DHT22;15994;51.796;13.006;2022-08-19T06:24:05;20.00;99.90
28863;DHT22;15994;51.796;13.006;2022-08-19T06:26:34;20.00;99.90
28863;DHT22;15994;51.796;13.006;2022-08-19T06:29:01;20.00;99.90
28863;DHT22;15994;51.796;13.006;2022-08-19T06:31:28;20.10;99.90
28863;DHT22;15994;51.796;13.006;2022-08-19T06:33:56;20.00;99.90
28863;DHT22;15994;51.796;13.006;2022-08-19T06:36:28;20.00;99.90
28863;DHT22;15994;51.796;13.006;2022-08-19T06:39:00;20.10;99.90
28863;DHT22;15994;51.796;13.006;2022-08-19T06:41:28;20.10;99.90
28863;DHT22;15994;51.796;13.006;2022-08-19T06:43:55;20.00;99.90
28863;DHT22;15994;51.796;13.006;2022-08-19T06:46:22;20.10;99.90
28863;DHT22;15994;51.796;13.006;2022-08-19T06:48:49;20.10;99.90
28863;DHT22;15994;51.796;13.006;2022-08-19T06:51:18;20.10;99.90
28863;DHT22;15994;51.796;13.006;2022-08-19T06:53:46;20.00;99.90
28863;DHT22;15994;51.796;13.006;2022-08-19T06:56:15;20.10;99.90
28863;DHT22;15994;51.796;13.006;2022-08-19T06:58:42;20.10;99.90
28863;DHT22;15994;51.796;13.006;2022-08-19T07:01:09;20.10;99.90
28863;DHT22;15994;51.796;13.006;2022-08-19T07:03:38;20.10;99.90
28863;DHT22;15994;51.796;13.006;2022-08-19T07:06:06;20.10;99.90
28863;DHT22;15994;51.796;13.006;2022-08-19T07:08:34;20.20;99.90
28863;DHT22;15994;51.796;13.006;2022-08-19T07:11:02;20.20;99.90
28863;DHT22;15994;51.796;13.006;2022-08-19T07:13:32;20.20;99.90
28863;DHT22;15994;51.796;13.006;2022-08-19T07:16:06;20.10;99.90
28863;DHT22;15994;51.796;13.006;2022-08-19T07:18:34;20.20;99.90
28863;DHT22;15994;51.796;13.006;2022-08-19T07:21:09;20.10;99.90
28863;DHT22;15994;51.796;13.006;2022-08-19T07:23:36;20.20;99.90
28863;DHT22;15994;51.796;13.006;2022-08-19T07:26:08;20.20;99.90
28863;DHT22;15994;51.796;13.006;2022-08-19T07:28:35;20.20;99.90
28863;DHT22;15994;51.796;13.006;2022-08-19T07:31:05;20.20;99.90
28863;DHT22;15994;51.796;13.006;2022-08-19T07:33:31;20.20;99.90
28863;DHT22;15994;51.796;13.006;2022-08-19T07:36:03;20.20;99.90
28863;DHT22;15994;51.796;13.006;2022-08-19T07:38:32;20.20;99.90
28863;DHT22;15994;51.796;13.006;2022-08-19T07:40:59;20.20;99.90
28863;DHT22;15994;51.796;13.006;2022-08-19T07:43:26;20.10;99.90
28863;DHT22;15994;51.796;13.006;2022-08-19T07:45:53;20.20;99.90
28863;DHT22;15994;51.796;13.006;2022-08-19T07:48:23;20.40;99.90
28863;DHT22;15994;51.796;13.006;2022-08-19T07:50:59;20.40;99.90
28863;DHT22;15994;51.796;13.006;2022-08-19T07:53:28;20.40;99.90
28863;DHT22;15994;51.796;13.006;2022-08-19T07:55:55;20.50;99.90
28863;DHT22;15994;51.796;13.006;2022-08-19T07:58:23;20.50;99.90
28863;DHT22;15994;51.796;13.006;2022-08-19T08:00:50;20.40;99.90
28863;DHT22;15994;51.796;13.006;2022-08-19T08:03:19;20.30;99.90
28863;DHT22;15994;51.796;13.006;2022-08-19T08:06:07;20.30;99.90
28863;DHT22;15994;51.796;13.006;2022-08-19T08:08:51;20.40;99.90
28863;DHT22;15994;51.796;13.006;2022-08-19T08:11:35;20.50;99.90
28863;DHT22;15994;51.796;13.006;2022-08-19T08:14:01;20.50;99.90
28863;DHT22;15994;51.796;13.006;2022-08-19T08:16:29;20.50;99.90
28863;DHT22;15994;51.796;13.006;2022-08-19T08:18:57;20.50;99.90
28863;DHT22;15994;51.796;13.006;2022-08-19T08:21:23;20.50;99.90
28863;DHT22;15994;51.796;13.006;2022-08-19T08:23:50;20.50;99.90
28863;DHT22;15994;51.796;13.006;2022-08-19T08:26:17;20.50;99.90
28863;DHT22;15994;51.796;13.006;2022-08-19T08:28:43;20.50;99.90
28863;DHT22;15994;51.796;13.006;2022-08-19T08:31:12;20.50;99.90
28863;DHT22;15994;51.796;13.006;2022-08-19T08:33:39;20.50;99.90
28863;DHT22;15994;51.796;13.006;2022-08-19T08:36:08;20.50;99.90
28863;DHT22;15994;51.796;13.006;2022-08-19T08:38:36;20.50;99.90
28863;DHT22;15994;51.796;13.006;2022-08-19T08:43:55;20.60;99.90
28863;DHT22;15994;51.796;13.006;2022-08-19T08:46:48;20.60;99.90
28863;DHT22;15994;51.796;13.006;2022-08-19T08:49:41;20.60;99.90
28863;DHT22;15994;51.796;13.006;2022-08-19T08:52:26;20.70;99.90
28863;DHT22;15994;51.796;13.006;2022-08-19T08:54:57;20.60;99.90
28863;DHT22;15994;51.796;13.006;2022-08-19T09:00:07;20.70;99.90
28863;DHT22;15994;51.796;13.006;2022-08-19T09:02:34;20.70;99.90
28863;DHT22;15994;51.796;13.006;2022-08-19T09:05:01;20.70;99.90
28863;DHT22;15994;51.796;13.006;2022-08-19T09:10:51;20.70;99.90
28863;DHT22;15994;51.796;13.006;2022-08-19T09:16:22;20.70;99.90
28863;DHT22;15994;51.796;13.006;2022-08-19T09:18:55;20.90;99.90
28863;DHT22;15994;51.796;13.006;2022-08-19T09:21:24;20.90;99.90
28863;DHT22;15994;51.796;13.006;2022-08-19T09:23:51;20.80;99.90
28863;DHT22;15994;51.796;13.006;2022-08-19T09:26:21;20.90;99.90
28863;DHT22;15994;51.796;13.006;2022-08-19T09:28:50;21.10;99.90
28863;DHT22;15994;51.796;13.006;2022-08-19T09:31:25;21.20;99.90
28863;DHT22;15994;51.796;13.006;2022-08-19T09:33:52;21.40;99.90
28863;DHT22;15994;51.796;13.006;2022-08-19T09:36:23;21.40;99.90
28863;DHT22;15994;51.796;13.006;2022-08-19T09:38:52;21.50;99.90
28863;DHT22;15994;51.796;13.006;2022-08-19T09:41:21;21.50;99.90
28863;DHT22;15994;51.796;13.006;2022-08-19T09:43:51;21.40;99.90
28863;DHT22;15994;51.796;13.006;2022-08-19T09:46:19;21.40;99.90
28863;DHT22;15994;51.796;13.006;2022-08-19T09:48:47;21.30;99.90
28863;DHT22;15994;51.796;13.006;2022-08-19T09:51:19;21.30;99.90
28863;DHT22;15994;51.796;13.006;2022-08-19T09:53:47;21.10;99.90
28863;DHT22;15994;51.796;13.006;2022-08-19T09:56:16;20.90;99.90
28863;DHT22;15994;51.796;13.006;2022-08-19T09:58:42;20.90;99.90
28863;DHT22;15994;51.796;13.006;2022-08-19T10:01:14;20.90;99.90
28863;DHT22;15994;51.796;13.006;2022-08-19T10:03:41;20.70;99.90
28863;DHT22;15994;51.796;13.006;2022-08-19T10:06:07;20.70;99.90
28863;DHT22;15994;51.796;13.006;2022-08-19T10:08:36;20.70;99.90
28863;DHT22;15994;51.796;13.006;2022-08-19T10:11:05;20.70;99.90
28863;DHT22;15994;51.796;13.006;2022-08-19T10:13:32;20.70;99.90
28863;DHT22;15994;51.796;13.006;2022-08-19T10:16:14;20.70;99.90
28863;DHT22;15994;51.796;13.006;2022-08-19T10:18:41;20.70;99.90
28863;DHT22;15994;51.796;13.006;2022-08-19T10:21:18;20.70;99.90
28863;DHT22;15994;51.796;13.006;2022-08-19T10:23:45;20.80;99.90
28863;DHT22;15994;51.796;13.006;2022-08-19T10:26:18;20.90;99.90
28863;DHT22;15994;51.796;13.006;2022-08-19T10:28:45;21.10;99.90
28863;DHT22;15994;51.796;13.006;2022-08-19T10:31:15;21.10;99.90
28863;DHT22;15994;51.796;13.006;2022-08-19T10:33:44;21.10;99.90
28863;DHT22;15994;51.796;13.006;2022-08-19T10:36:14;21.00;99.90
28863;DHT22;15994;51.796;13.006;2022-08-19T10:38:43;21.20;99.90
28863;DHT22;15994;51.796;13.006;2022-08-19T10:41:32;21.10;99.90
28863;DHT22;15994;51.796;13.006;2022-08-19T10:44:02;21.20;99.90
28863;DHT22;15994;51.796;13.006;2022-08-19T10:46:31;21.10;99.90
28863;DHT22;15994;51.796;13.006;2022-08-19T10:48:59;21.10;99.90
28863;DHT22;15994;51.796;13.006;2022-08-19T10:51:26;21.10;99.90
28863;DHT22;15994;51.796;13.006;2022-08-19T10:54:11;21.20;99.90
28863;DHT22;15994;51.796;13.006;2022-08-19T10:56:37;21.40;99.90
28863;DHT22;15994;51.796;13.006;2022-08-19T10:59:26;21.40;99.90
28863;DHT22;15994;51.796;13.006;2022-08-19T11:01:58;21.30;99.90
28863;DHT22;15994;51.796;13.006;2022-08-19T11:04:25;21.30;99.90
28863;DHT22;15994;51.796;13.006;2022-08-19T11:06:52;21.50;99.90
28863;DHT22;15994;51.796;13.006;2022-08-19T11:09:21;21.50;99.90
28863;DHT22;15994;51.796;13.006;2022-08-19T11:11:49;21.50;99.90
28863;DHT22;15994;51.796;13.006;2022-08-19T11:14:17;21.30;99.90
28863;DHT22;15994;51.796;13.006;2022-08-19T11:16:49;21.20;99.90
28863;DHT22;15994;51.796;13.006;2022-08-19T11:19:16;21.10;99.90
28863;DHT22;15994;51.796;13.006;2022-08-19T11:21:46;20.90;99.90
28863;DHT22;15994;51.796;13.006;2022-08-19T11:24:16;20.90;99.90
28863;DHT22;15994;51.796;13.006;2022-08-19T11:26:44;21.00;99.90
28863;DHT22;15994;51.796;13.006;2022-08-19T11:29:12;21.00;99.90
28863;DHT22;15994;51.796;13.006;2022-08-19T11:31:41;21.00;99.90
28863;DHT22;15994;51.796;13.006;2022-08-19T11:34:11;21.10;99.90
28863;DHT22;15994;51.796;13.006;2022-08-19T11:36:41;21.10;99.90
28863;DHT22;15994;51.796;13.006;2022-08-19T11:39:11;21.10;99.90
28863;DHT22;15994;51.796;13.006;2022-08-19T11:41:39;21.10;99.90
28863;DHT22;15994;51.796;13.006;2022-08-19T11:44:06;21.30;99.90
28863;DHT22;15994;51.796;13.006;2022-08-19T11:46:35;21.30;99.90
28863;DHT22;15994;51.796;13.006;2022-08-19T11:49:04;21.30;99.90
28863;DHT22;15994;51.796;13.006;2022-08-19T11:51:34;21.20;99.90
28863;DHT22;15994;51.796;13.006;2022-08-19T11:54:01;21.30;99.90
28863;DHT22;15994;51.796;13.006;2022-08-19T11:56:28;21.40;99.90
28863;DHT22;15994;51.796;13.006;2022-08-19T11:58:55;21.20;99.90
28863;DHT22;15994;51.796;13.006;2022-08-19T12:01:24;21.20;99.90
28863;DHT22;15994;51.796;13.006;2022-08-19T12:03:52;21.20;99.90
28863;DHT22;15994;51.796;13.006;2022-08-19T12:06:22;21.30;99.90
28863;DHT22;15994;51.796;13.006;2022-08-19T12:08:51;21.30;99.90
28863;DHT22;15994;51.796;13.006;2022-08-19T12:11:18;21.20;99.90
28863;DHT22;15994;51.796;13.006;2022-08-19T12:13:45;21.20;99.90
28863;DHT22;15994;51.796;13.006;2022-08-19T12:16:16;21.20;99.90
28863;DHT22;15994;51.796;13.006;2022-08-19T12:18:43;21.20;99.90
28863;DHT22;15994;51.796;13.006;2022-08-19T12:21:15;21.20;99.90
28863;DHT22;15994;51.796;13.006;2022-08-19T12:23:43;21.20;99.90
28863;DHT22;15994;51.796;13.006;2022-08-19T12:26:11;21.20;99.90
28863;DHT22;15994;51.796;13.006;2022-08-19T12:28:37;21.20;99.90
28863;DHT22;15994;51.796;13.006;2022-08-19T12:31:05;21.20;99.90
28863;DHT22;15994;51.796;13.006;2022-08-19T12:33:32;21.20;99.90
28863;DHT22;15994;51.796;13.006;2022-08-19T12:36:06;21.10;99.90
28863;DHT22;15994;51.796;13.006;2022-08-19T12:38:33;21.20;99.90
28863;DHT22;15994;51.796;13.006;2022-08-19T12:41:00;21.20;99.90
28863;DHT22;15994;51.796;13.006;2022-08-19T12:43:28;21.10;99.90
28863;DHT22;15994;51.796;13.006;2022-08-19T12:45:55;21.10;99.90
28863;DHT22;15994;51.796;13.006;2022-08-19T12:48:22;21.10;99.90
28863;DHT22;15994;51.796;13.006;2022-08-19T12:50:48;21.10;99.90
28863;DHT22;15994;51.796;13.006;2022-08-19T12:53:15;21.10;99.90
28863;DHT22;15994;51.796;13.006;2022-08-19T12:55:42;21.10;99.90
28863;DHT22;15994;51.796;13.006;2022-08-19T12:58:09;21.20;99.90
28863;DHT22;15994;51.796;13.006;2022-08-19T13:00:37;21.40;99.90
28863;DHT22;15994;51.796;13.006;2022-08-19T13:03:04;21.40;99.90
28863;DHT22;15994;51.796;13.006;2022-08-19T13:05:32;21.40;99.90
28863;DHT22;15994;51.796;13.006;2022-08-19T13:07:59;21.40;99.90
28863;DHT22;15994;51.796;13.006;2022-08-19T13:10:30;21.30;99.90
28863;DHT22;15994;51.796;13.006;2022-08-19T13:12:57;21.20;99.90
28863;DHT22;15994;51.796;13.006;2022-08-19T13:15:25;21.20;99.90
28863;DHT22;15994;51.796;13.006;2022-08-19T13:17:54;21.30;99.90
28863;DHT22;15994;51.796;13.006;2022-08-19T13:20:21;21.40;99.90
28863;DHT22;15994;51.796;13.006;2022-08-19T13:22:48;21.50;99.90
28863;DHT22;15994;51.796;13.006;2022-08-19T13:25:16;21.60;99.90
28863;DHT22;15994;51.796;13.006;2022-08-19T13:27:44;21.70;99.90
28863;DHT22;15994;51.796;13.006;2022-08-19T13:30:13;21.70;99.90
28863;DHT22;15994;51.796;13.006;2022-08-19T13:32:58;21.60;99.90
28863;DHT22;15994;51.796;13.006;2022-08-19T13:35:45;21.70;99.90
28863;DHT22;15994;51.796;13.006;2022-08-19T13:38:13;21.90;99.90
28863;DHT22;15994;51.796;13.006;2022-08-19T13:40:41;21.90;99.90
28863;DHT22;15994;51.796;13.006;2022-08-19T13:43:09;21.90;99.90
28863;DHT22;15994;51.796;13.006;2022-08-19T13:45:35;21.90;99.90
28863;DHT22;15994;51.796;13.006;2022-08-19T13:48:07;21.80;99.90
28863;DHT22;15994;51.796;13.006;2022-08-19T13:50:37;21.80;99.90
28863;DHT22;15994;51.796;13.006;2022-08-19T13:53:05;21.70;99.90
28863;DHT22;15994;51.796;13.006;2022-08-19T13:55:32;21.70;99.90
28863;DHT22;15994;51.796;13.006;2022-08-19T13:57:59;21.70;99.90
28863;DHT22;15994;51.796;13.006;2022-08-19T14:00:28;21.60;99.90
28863;DHT22;15994;51.796;13.006;2022-08-19T14:02:56;21.60;99.90
28863;DHT22;15994;51.796;13.006;2022-08-19T14:05:25;21.60;99.90
28863;DHT22;15994;51.796;13.006;2022-08-19T14:07:52;21.50;99.90
28863;DHT22;15994;51.796;13.006;2022-08-19T14:10:19;21.50;99.90
28863;DHT22;15994;51.796;13.006;2022-08-19T14:12:46;21.50;99.90
28863;DHT22;15994;51.796;13.006;2022-08-19T14:15:13;21.50;99.90
28863;DHT22;15994;51.796;13.006;2022-08-19T14:17:43;21.50;99.90
28863;DHT22;15994;51.796;13.006;2022-08-19T14:20:12;21.50;99.90
28863;DHT22;15994;51.796;13.006;2022-08-19T14:22:41;21.40;99.90
28863;DHT22;15994;51.796;13.006;2022-08-19T14:25:11;21.30;99.90
28863;DHT22;15994;51.796;13.006;2022-08-19T14:27:39;21.40;99.90
28863;DHT22;15994;51.796;13.006;2022-08-19T14:30:08;21.30;99.90
28863;DHT22;15994;51.796;13.006;2022-08-19T14:32:35;21.30;99.90
28863;DHT22;15994;51.796;13.006;2022-08-19T14:35:03;21.30;99.90
28863;DHT22;15994;51.796;13.006;2022-08-19T14:37:29;21.20;99.90
28863;DHT22;15994;51.796;13.006;2022-08-19T14:39:56;21.20;99.90
28863;DHT22;15994;51.796;13.006;2022-08-19T14:42:22;21.20;99.90
28863;DHT22;15994;51.796;13.006;2022-08-19T14:44:49;21.30;99.90
28863;DHT22;15994;51.796;13.006;2022-08-19T14:47:15;21.30;99.90
28863;DHT22;15994;51.796;13.006;2022-08-19T14:49:42;21.30;99.90
28863;DHT22;15994;51.796;13.006;2022-08-19T14:52:09;21.30;99.90
28863;DHT22;15994;51.796;13.006;2022-08-19T14:54:35;21.20;99.90
28863;DHT22;15994;51.796;13.006;2022-08-19T14:57:02;21.20;99.90
28863;DHT22;15994;51.796;13.006;2022-08-19T14:59:28;21.20;99.90
28863;DHT22;15994;51.796;13.006;2022-08-19T15:01:55;21.20;99.90
28863;DHT22;15994;51.796;13.006;2022-08-19T15:04:21;21.20;99.90
28863;DHT22;15994;51.796;13.006;2022-08-19T15:06:48;21.40;99.90
28863;DHT22;15994;51.796;13.006;2022-08-19T15:09:15;21.50;99.90
28863;DHT22;15994;51.796;13.006;2022-08-19T15:11:47;21.60;99.90
28863;DHT22;15994;51.796;13.006;2022-08-19T15:14:15;21.60;99.90
28863;DHT22;15994;51.796;13.006;2022-08-19T15:16:42;21.80;99.90
28863;DHT22;15994;51.796;13.006;2022-08-19T15:19:09;21.90;99.90
28863;DHT22;15994;51.796;13.006;2022-08-19T15:21:37;22.00;99.90
28863;DHT22;15994;51.796;13.006;2022-08-19T15:24:03;22.10;99.90
28863;DHT22;15994;51.796;13.006;2022-08-19T15:26:31;22.20;99.90
28863;DHT22;15994;51.796;13.006;2022-08-19T15:28:58;22.30;99.90
28863;DHT22;15994;51.796;13.006;2022-08-19T15:31:25;22.40;99.90
28863;DHT22;15994;51.796;13.006;2022-08-19T15:33:54;22.40;99.90
28863;DHT22;15994;51.796;13.006;2022-08-19T15:36:23;22.60;99.90
28863;DHT22;15994;51.796;13.006;2022-08-19T15:38:50;22.60;99.90